sensor_id;sensor_type;location;lat;lon;timestamp;P1;durP1;ratioP1;P2;durP2;ratioP2
4650;SDS011;2338;49.602;8.722;2024-01-30T00:01:54;22.35;;;16.13;;
4650;SDS011;2338;49.602;8.722;2024-01-30T00:04:40;24.05;;;15.57;;
4650;SDS011;2338;49.602;8.722;2024-01-30T00:07:25;21.10;;;15.85;;
4650;SDS011;2338;49.602;8.722;2024-01-30T00:10:11;21.65;;;16.42;;
4650;SDS011;2338;49.602;8.722;2024-01-30T00:12:56;22.15;;;16.25;;
4650;SDS011;2338;49.602;8.722;2024-01-30T00:15:42;29.92;;;17.92;;
4650;SDS011;2338;49.602;8.722;2024-01-30T00:18:29;22.67;;;15.57;;
4650;SDS011;2338;49.602;8.722;2024-01-30T00:21:15;23.40;;;17.33;;
4650;SDS011;2338;49.602;8.722;2024-01-30T00:24:01;23.98;;;15.98;;
4650;SDS011;2338;49.602;8.722;2024-01-30T00:26:46;23.70;;;15.70;;
4650;SDS011;2338;49.602;8.722;2024-01-30T00:29:32;26.20;;;15.48;;
4650;SDS011;2338;49.602;8.722;2024-01-30T00:32:18;27.52;;;16.02;;
4650;SDS011;2338;49.602;8.722;2024-01-30T00:35:05;21.27;;;15.75;;
4650;SDS011;2338;49.602;8.722;2024-01-30T00:37:53;23.70;;;17.33;;
4650;SDS011;2338;49.602;8.722;2024-01-30T00:40:39;23.05;;;16.35;;
4650;SDS011;2338;49.602;8.722;2024-01-30T00:43:24;21.33;;;16.42;;
4650;SDS011;2338;49.602;8.722;2024-01-30T00:46:10;24.67;;;17.02;;
4650;SDS011;2338;49.602;8.722;2024-01-30T00:48:56;22.10;;;17.42;;
4650;SDS011;2338;49.602;8.722;2024-01-30T00:51:43;25.02;;;18.25;;
4650;SDS011;2338;49.602;8.722;2024-01-30T00:54:29;24.17;;;17.48;;
4650;SDS011;2338;49.602;8.722;2024-01-30T00:57:14;25.55;;;16.48;;
4650;SDS011;2338;49.602;8.722;2024-01-30T01:00:00;23.98;;;15.40;;
4650;SDS011;2338;49.602;8.722;2024-01-30T01:02:45;21.50;;;15.98;;
4650;SDS011;2338;49.602;8.722;2024-01-30T01:05:31;24.00;;;16.42;;
4650;SDS011;2338;49.602;8.722;2024-01-30T01:08:18;24.48;;;16.70;;
4650;SDS011;2338;49.602;8.722;2024-01-30T01:11:03;21.02;;;16.00;;
4650;SDS011;2338;49.602;8.722;2024-01-30T01:13:49;21.05;;;16.02;;
4650;SDS011;2338;49.602;8.722;2024-01-30T01:16:35;22.02;;;17.00;;
4650;SDS011;2338;49.602;8.722;2024-01-30T01:19:21;23.30;;;16.20;;
4650;SDS011;2338;49.602;8.722;2024-01-30T01:22:07;20.92;;;15.20;;
4650;SDS011;2338;49.602;8.722;2024-01-30T01:24:54;20.67;;;14.60;;
4650;SDS011;2338;49.602;8.722;2024-01-30T01:27:40;23.73;;;15.55;;
4650;SDS011;2338;49.602;8.722;2024-01-30T01:30:26;21.13;;;15.52;;
4650;SDS011;2338;49.602;8.722;2024-01-30T01:33:12;21.33;;;16.60;;
4650;SDS011;2338;49.602;8.722;2024-01-30T01:35:59;18.63;;;15.00;;
4650;SDS011;2338;49.602;8.722;2024-01-30T01:38:45;20.73;;;14.80;;
4650;SDS011;2338;49.602;8.722;2024-01-30T01:41:33;20.70;;;16.30;;
4650;SDS011;2338;49.602;8.722;2024-01-30T01:44:18;23.38;;;16.35;;
4650;SDS011;2338;49.602;8.722;2024-01-30T01:47:04;29.95;;;15.95;;
4650;SDS011;2338;49.602;8.722;2024-01-30T01:49:50;19.23;;;14.32;;
4650;SDS011;2338;49.602;8.722;2024-01-30T01:52:36;19.08;;;14.55;;
4650;SDS011;2338;49.602;8.722;2024-01-30T01:55:23;21.33;;;15.98;;
4650;SDS011;2338;49.602;8.722;2024-01-30T01:58:13;19.25;;;14.07;;
4650;SDS011;2338;49.602;8.722;2024-01-30T02:00:59;22.35;;;15.98;;
4650;SDS011;2338;49.602;8.722;2024-01-30T02:03:45;25.13;;;15.48;;
4650;SDS011;2338;49.602;8.722;2024-01-30T02:06:31;18.30;;;14.90;;
4650;SDS011;2338;49.602;8.722;2024-01-30T02:09:17;19.13;;;14.90;;
4650;SDS011;2338;49.602;8.722;2024-01-30T02:12:03;20.23;;;15.88;;
4650;SDS011;2338;49.602;8.722;2024-01-30T02:14:50;20.80;;;15.80;;
4650;SDS011;2338;49.602;8.722;2024-01-30T02:17:37;17.45;;;14.05;;
4650;SDS011;2338;49.602;8.722;2024-01-30T02:20:23;19.50;;;14.23;;
4650;SDS011;2338;49.602;8.722;2024-01-30T02:23:11;19.92;;;14.02;;
4650;SDS011;2338;49.602;8.722;2024-01-30T02:25:57;23.73;;;14.65;;
4650;SDS011;2338;49.602;8.722;2024-01-30T02:28:43;17.95;;;13.75;;
4650;SDS011;2338;49.602;8.722;2024-01-30T02:31:28;19.98;;;13.68;;
4650;SDS011;2338;49.602;8.722;2024-01-30T02:34:14;20.60;;;14.50;;
4650;SDS011;2338;49.602;8.722;2024-01-30T02:37:00;20.52;;;13.85;;
4650;SDS011;2338;49.602;8.722;2024-01-30T02:39:47;20.15;;;13.57;;
4650;SDS011;2338;49.602;8.722;2024-01-30T02:42:32;22.83;;;15.40;;
4650;SDS011;2338;49.602;8.722;2024-01-30T02:45:18;25.27;;;16.88;;
4650;SDS011;2338;49.602;8.722;2024-01-30T02:48:03;21.92;;;15.32;;
4650;SDS011;2338;49.602;8.722;2024-01-30T02:50:50;19.05;;;14.05;;
4650;SDS011;2338;49.602;8.722;2024-01-30T02:53:35;23.45;;;16.45;;
4650;SDS011;2338;49.602;8.722;2024-01-30T02:56:23;23.60;;;17.00;;
4650;SDS011;2338;49.602;8.722;2024-01-30T02:59:08;23.50;;;16.58;;
4650;SDS011;2338;49.602;8.722;2024-01-30T03:01:54;21.85;;;15.85;;
4650;SDS011;2338;49.602;8.722;2024-01-30T03:04:40;23.10;;;15.00;;
4650;SDS011;2338;49.602;8.722;2024-01-30T03:07:26;24.45;;;16.27;;
4650;SDS011;2338;49.602;8.722;2024-01-30T03:10:11;20.95;;;15.95;;
4650;SDS011;2338;49.602;8.722;2024-01-30T03:12:58;18.55;;;13.07;;
4650;SDS011;2338;49.602;8.722;2024-01-30T03:15:44;23.25;;;14.80;;
4650;SDS011;2338;49.602;8.722;2024-01-30T03:18:29;21.30;;;15.68;;
4650;SDS011;2338;49.602;8.722;2024-01-30T03:21:15;19.52;;;14.75;;
4650;SDS011;2338;49.602;8.722;2024-01-30T03:24:01;25.58;;;16.38;;
4650;SDS011;2338;49.602;8.722;2024-01-30T03:26:47;19.30;;;15.48;;
4650;SDS011;2338;49.602;8.722;2024-01-30T03:29:34;16.80;;;14.48;;
4650;SDS011;2338;49.602;8.722;2024-01-30T03:32:20;20.63;;;14.70;;
4650;SDS011;2338;49.602;8.722;2024-01-30T03:35:06;19.30;;;14.65;;
4650;SDS011;2338;49.602;8.722;2024-01-30T03:37:52;21.17;;;15.30;;
4650;SDS011;2338;49.602;8.722;2024-01-30T03:40:38;20.30;;;14.63;;
4650;SDS011;2338;49.602;8.722;2024-01-30T03:43:23;21.60;;;14.60;;
4650;SDS011;2338;49.602;8.722;2024-01-30T03:46:11;20.63;;;14.63;;
4650;SDS011;2338;49.602;8.722;2024-01-30T03:48:57;16.95;;;13.85;;
4650;SDS011;2338;49.602;8.722;2024-01-30T03:51:42;17.23;;;11.60;;
4650;SDS011;2338;49.602;8.722;2024-01-30T03:54:28;16.50;;;14.02;;
4650;SDS011;2338;49.602;8.722;2024-01-30T03:57:14;17.98;;;13.48;;
4650;SDS011;2338;49.602;8.722;2024-01-30T04:00:00;17.42;;;13.95;;
4650;SDS011;2338;49.602;8.722;2024-01-30T04:02:50;22.92;;;13.27;;
4650;SDS011;2338;49.602;8.722;2024-01-30T04:05:36;25.33;;;14.00;;
4650;SDS011;2338;49.602;8.722;2024-01-30T04:08:21;19.73;;;14.20;;
4650;SDS011;2338;49.602;8.722;2024-01-30T04:11:07;19.85;;;13.35;;
4650;SDS011;2338;49.602;8.722;2024-01-30T04:13:52;17.88;;;13.40;;
4650;SDS011;2338;49.602;8.722;2024-01-30T04:16:38;18.08;;;13.75;;
4650;SDS011;2338;49.602;8.722;2024-01-30T04:19:25;20.00;;;14.38;;
4650;SDS011;2338;49.602;8.722;2024-01-30T04:22:10;23.33;;;14.10;;
4650;SDS011;2338;49.602;8.722;2024-01-30T04:24:56;20.00;;;14.45;;
4650;SDS011;2338;49.602;8.722;2024-01-30T04:27:42;17.42;;;12.73;;
4650;SDS011;2338;49.602;8.722;2024-01-30T04:30:27;19.20;;;12.77;;
4650;SDS011;2338;49.602;8.722;2024-01-30T04:33:12;16.45;;;12.68;;
4650;SDS011;2338;49.602;8.722;2024-01-30T04:35:59;17.35;;;12.48;;
4650;SDS011;2338;49.602;8.722;2024-01-30T04:38:45;13.25;;;11.60;;
4650;SDS011;2338;49.602;8.722;2024-01-30T04:41:31;17.02;;;13.10;;
4650;SDS011;2338;49.602;8.722;2024-01-30T04:44:16;18.33;;;12.68;;
4650;SDS011;2338;49.602;8.722;2024-01-30T04:47:01;19.95;;;13.82;;
4650;SDS011;2338;49.602;8.722;2024-01-30T04:49:51;22.08;;;13.90;;
4650;SDS011;2338;49.602;8.722;2024-01-30T04:52:38;18.45;;;13.45;;
4650;SDS011;2338;49.602;8.722;2024-01-30T04:55:23;14.63;;;12.30;;
4650;SDS011;2338;49.602;8.722;2024-01-30T04:58:09;16.08;;;11.68;;
4650;SDS011;2338;49.602;8.722;2024-01-30T05:00:54;14.43;;;12.15;;
4650;SDS011;2338;49.602;8.722;2024-01-30T05:03:40;20.13;;;13.90;;
4650;SDS011;2338;49.602;8.722;2024-01-30T05:06:25;17.35;;;11.55;;
4650;SDS011;2338;49.602;8.722;2024-01-30T05:09:12;14.60;;;11.80;;
4650;SDS011;2338;49.602;8.722;2024-01-30T05:11:58;15.15;;;11.40;;
4650;SDS011;2338;49.602;8.722;2024-01-30T05:14:43;14.80;;;12.55;;
4650;SDS011;2338;49.602;8.722;2024-01-30T05:17:29;16.95;;;12.35;;
4650;SDS011;2338;49.602;8.722;2024-01-30T05:20:14;17.10;;;11.65;;
4650;SDS011;2338;49.602;8.722;2024-01-30T05:23:00;16.10;;;12.50;;
4650;SDS011;2338;49.602;8.722;2024-01-30T05:25:47;16.17;;;11.65;;
4650;SDS011;2338;49.602;8.722;2024-01-30T05:28:32;19.45;;;13.85;;
4650;SDS011;2338;49.602;8.722;2024-01-30T05:31:18;17.27;;;12.82;;
4650;SDS011;2338;49.602;8.722;2024-01-30T05:34:04;15.55;;;12.98;;
4650;SDS011;2338;49.602;8.722;2024-01-30T05:36:50;16.15;;;13.18;;
4650;SDS011;2338;49.602;8.722;2024-01-30T05:39:36;14.82;;;13.23;;
4650;SDS011;2338;49.602;8.722;2024-01-30T05:42:23;14.38;;;11.73;;
4650;SDS011;2338;49.602;8.722;2024-01-30T05:45:09;15.80;;;12.70;;
4650;SDS011;2338;49.602;8.722;2024-01-30T05:47:54;16.38;;;13.07;;
4650;SDS011;2338;49.602;8.722;2024-01-30T05:50:40;19.83;;;13.02;;
4650;SDS011;2338;49.602;8.722;2024-01-30T05:53:25;17.92;;;13.02;;
4650;SDS011;2338;49.602;8.722;2024-01-30T05:56:11;15.65;;;11.80;;
4650;SDS011;2338;49.602;8.722;2024-01-30T05:58:58;17.13;;;12.10;;
4650;SDS011;2338;49.602;8.722;2024-01-30T06:01:45;13.63;;;10.57;;
4650;SDS011;2338;49.602;8.722;2024-01-30T06:04:31;18.92;;;12.15;;
4650;SDS011;2338;49.602;8.722;2024-01-30T06:07:17;15.75;;;12.13;;
4650;SDS011;2338;49.602;8.722;2024-01-30T06:10:03;16.17;;;12.52;;
4650;SDS011;2338;49.602;8.722;2024-01-30T06:12:49;15.73;;;11.43;;
4650;SDS011;2338;49.602;8.722;2024-01-30T06:15:36;20.15;;;11.77;;
4650;SDS011;2338;49.602;8.722;2024-01-30T06:18:22;14.52;;;10.68;;
4650;SDS011;2338;49.602;8.722;2024-01-30T06:21:07;16.17;;;11.32;;
4650;SDS011;2338;49.602;8.722;2024-01-30T06:23:53;14.35;;;9.98;;
4650;SDS011;2338;49.602;8.722;2024-01-30T06:26:38;17.33;;;11.52;;
4650;SDS011;2338;49.602;8.722;2024-01-30T06:29:25;12.82;;;10.10;;
4650;SDS011;2338;49.602;8.722;2024-01-30T06:32:13;16.38;;;10.52;;
4650;SDS011;2338;49.602;8.722;2024-01-30T06:34:58;13.10;;;10.52;;
4650;SDS011;2338;49.602;8.722;2024-01-30T06:37:44;12.73;;;10.88;;
4650;SDS011;2338;49.602;8.722;2024-01-30T06:40:30;15.90;;;11.73;;
4650;SDS011;2338;49.602;8.722;2024-01-30T06:43:16;13.15;;;10.65;;
4650;SDS011;2338;49.602;8.722;2024-01-30T06:46:01;14.50;;;11.23;;
4650;SDS011;2338;49.602;8.722;2024-01-30T06:48:48;16.65;;;11.25;;
4650;SDS011;2338;49.602;8.722;2024-01-30T06:51:34;13.73;;;10.70;;
4650;SDS011;2338;49.602;8.722;2024-01-30T06:54:20;13.48;;;10.45;;
4650;SDS011;2338;49.602;8.722;2024-01-30T06:57:05;13.52;;;10.68;;
4650;SDS011;2338;49.602;8.722;2024-01-30T06:59:52;15.30;;;12.10;;
4650;SDS011;2338;49.602;8.722;2024-01-30T07:02:38;16.75;;;11.70;;
4650;SDS011;2338;49.602;8.722;2024-01-30T07:05:25;19.73;;;13.93;;
4650;SDS011;2338;49.602;8.722;2024-01-30T07:08:10;18.48;;;15.32;;
4650;SDS011;2338;49.602;8.722;2024-01-30T07:10:56;20.02;;;15.25;;
4650;SDS011;2338;49.602;8.722;2024-01-30T07:13:42;24.70;;;16.60;;
4650;SDS011;2338;49.602;8.722;2024-01-30T07:16:27;25.52;;;18.30;;
4650;SDS011;2338;49.602;8.722;2024-01-30T07:19:13;28.27;;;19.50;;
4650;SDS011;2338;49.602;8.722;2024-01-30T07:22:00;27.70;;;18.17;;
4650;SDS011;2338;49.602;8.722;2024-01-30T07:24:46;26.05;;;18.40;;
4650;SDS011;2338;49.602;8.722;2024-01-30T07:27:32;30.30;;;20.25;;
4650;SDS011;2338;49.602;8.722;2024-01-30T07:30:18;28.63;;;20.77;;
4650;SDS011;2338;49.602;8.722;2024-01-30T07:33:04;24.70;;;16.77;;
4650;SDS011;2338;49.602;8.722;2024-01-30T07:35:51;21.38;;;14.98;;
4650;SDS011;2338;49.602;8.722;2024-01-30T07:38:39;13.90;;;11.75;;
4650;SDS011;2338;49.602;8.722;2024-01-30T07:41:25;14.40;;;12.00;;
4650;SDS011;2338;49.602;8.722;2024-01-30T07:44:10;17.33;;;11.73;;
4650;SDS011;2338;49.602;8.722;2024-01-30T07:46:56;14.88;;;11.15;;
4650;SDS011;2338;49.602;8.722;2024-01-30T07:49:41;13.95;;;11.80;;
4650;SDS011;2338;49.602;8.722;2024-01-30T07:52:27;18.60;;;13.25;;
4650;SDS011;2338;49.602;8.722;2024-01-30T07:55:14;19.00;;;13.40;;
4650;SDS011;2338;49.602;8.722;2024-01-30T07:58:00;22.33;;;14.63;;
4650;SDS011;2338;49.602;8.722;2024-01-30T08:00:47;20.92;;;14.55;;
4650;SDS011;2338;49.602;8.722;2024-01-30T08:03:33;18.27;;;14.30;;
4650;SDS011;2338;49.602;8.722;2024-01-30T08:06:20;23.15;;;15.20;;
4650;SDS011;2338;49.602;8.722;2024-01-30T08:09:05;19.27;;;13.25;;
4650;SDS011;2338;49.602;8.722;2024-01-30T08:11:52;18.02;;;13.20;;
4650;SDS011;2338;49.602;8.722;2024-01-30T08:14:38;18.05;;;11.98;;
4650;SDS011;2338;49.602;8.722;2024-01-30T08:17:25;20.33;;;13.57;;
4650;SDS011;2338;49.602;8.722;2024-01-30T08:20:10;19.70;;;14.30;;
4650;SDS011;2338;49.602;8.722;2024-01-30T08:22:57;20.05;;;14.60;;
4650;SDS011;2338;49.602;8.722;2024-01-30T08:25:43;17.73;;;14.55;;
4650;SDS011;2338;49.602;8.722;2024-01-30T08:28:30;19.55;;;13.88;;
4650;SDS011;2338;49.602;8.722;2024-01-30T08:31:16;20.10;;;14.95;;
4650;SDS011;2338;49.602;8.722;2024-01-30T08:34:02;20.23;;;15.82;;
4650;SDS011;2338;49.602;8.722;2024-01-30T08:36:48;26.50;;;19.10;;
4650;SDS011;2338;49.602;8.722;2024-01-30T08:39:33;22.83;;;16.00;;
4650;SDS011;2338;49.602;8.722;2024-01-30T08:42:19;29.70;;;16.00;;
4650;SDS011;2338;49.602;8.722;2024-01-30T08:45:08;22.38;;;16.85;;
4650;SDS011;2338;49.602;8.722;2024-01-30T08:47:54;25.38;;;18.55;;
4650;SDS011;2338;49.602;8.722;2024-01-30T08:50:40;25.30;;;18.55;;
4650;SDS011;2338;49.602;8.722;2024-01-30T08:53:26;24.65;;;19.08;;
4650;SDS011;2338;49.602;8.722;2024-01-30T08:56:11;27.95;;;18.73;;
4650;SDS011;2338;49.602;8.722;2024-01-30T08:58:57;22.90;;;17.13;;
4650;SDS011;2338;49.602;8.722;2024-01-30T09:01:44;25.00;;;17.35;;
4650;SDS011;2338;49.602;8.722;2024-01-30T09:04:31;23.48;;;18.00;;
4650;SDS011;2338;49.602;8.722;2024-01-30T09:07:17;27.17;;;17.33;;
4650;SDS011;2338;49.602;8.722;2024-01-30T09:10:03;29.10;;;17.92;;
4650;SDS011;2338;49.602;8.722;2024-01-30T09:12:49;25.90;;;18.45;;
4650;SDS011;2338;49.602;8.722;2024-01-30T09:15:35;27.95;;;20.60;;
4650;SDS011;2338;49.602;8.722;2024-01-30T09:18:22;28.30;;;19.10;;
4650;SDS011;2338;49.602;8.722;2024-01-30T09:21:07;31.17;;;19.45;;
4650;SDS011;2338;49.602;8.722;2024-01-30T09:23:53;26.40;;;19.33;;
4650;SDS011;2338;49.602;8.722;2024-01-30T09:26:39;29.67;;;17.63;;
4650;SDS011;2338;49.602;8.722;2024-01-30T09:29:25;28.15;;;19.35;;
4650;SDS011;2338;49.602;8.722;2024-01-30T09:32:11;23.50;;;17.33;;
4650;SDS011;2338;49.602;8.722;2024-01-30T09:34:58;25.27;;;17.83;;
4650;SDS011;2338;49.602;8.722;2024-01-30T09:37:44;25.15;;;18.45;;
4650;SDS011;2338;49.602;8.722;2024-01-30T09:40:29;23.20;;;16.45;;
4650;SDS011;2338;49.602;8.722;2024-01-30T09:43:15;25.90;;;15.23;;
4650;SDS011;2338;49.602;8.722;2024-01-30T09:46:05;22.10;;;17.10;;
4650;SDS011;2338;49.602;8.722;2024-01-30T09:48:52;22.63;;;17.33;;
4650;SDS011;2338;49.602;8.722;2024-01-30T09:51:41;22.88;;;16.60;;
4650;SDS011;2338;49.602;8.722;2024-01-30T09:54:28;28.30;;;17.33;;
4650;SDS011;2338;49.602;8.722;2024-01-30T09:57:15;23.27;;;16.10;;
4650;SDS011;2338;49.602;8.722;2024-01-30T10:00:01;24.30;;;16.80;;
4650;SDS011;2338;49.602;8.722;2024-01-30T10:02:47;24.33;;;16.67;;
4650;SDS011;2338;49.602;8.722;2024-01-30T10:05:33;22.73;;;16.30;;
4650;SDS011;2338;49.602;8.722;2024-01-30T10:08:23;24.45;;;17.00;;
4650;SDS011;2338;49.602;8.722;2024-01-30T10:11:08;28.77;;;16.88;;
4650;SDS011;2338;49.602;8.722;2024-01-30T10:13:54;35.92;;;22.95;;
4650;SDS011;2338;49.602;8.722;2024-01-30T10:16:40;34.00;;;23.35;;
4650;SDS011;2338;49.602;8.722;2024-01-30T10:19:26;33.50;;;23.23;;
4650;SDS011;2338;49.602;8.722;2024-01-30T10:22:11;33.42;;;22.35;;
4650;SDS011;2338;49.602;8.722;2024-01-30T10:24:58;33.40;;;23.45;;
4650;SDS011;2338;49.602;8.722;2024-01-30T10:27:46;40.33;;;23.67;;
4650;SDS011;2338;49.602;8.722;2024-01-30T10:30:31;34.57;;;24.60;;
4650;SDS011;2338;49.602;8.722;2024-01-30T10:33:17;45.13;;;24.73;;
4650;SDS011;2338;49.602;8.722;2024-01-30T10:36:03;34.60;;;22.53;;
4650;SDS011;2338;49.602;8.722;2024-01-30T10:38:50;38.97;;;23.90;;
4650;SDS011;2338;49.602;8.722;2024-01-30T10:41:39;34.47;;;21.98;;
4650;SDS011;2338;49.602;8.722;2024-01-30T10:44:29;35.80;;;22.17;;
4650;SDS011;2338;49.602;8.722;2024-01-30T10:47:17;40.93;;;24.40;;
4650;SDS011;2338;49.602;8.722;2024-01-30T10:50:11;40.23;;;24.73;;
4650;SDS011;2338;49.602;8.722;2024-01-30T10:52:58;44.30;;;26.10;;
4650;SDS011;2338;49.602;8.722;2024-01-30T10:55:43;39.47;;;27.57;;
4650;SDS011;2338;49.602;8.722;2024-01-30T10:58:33;36.10;;;26.50;;
4650;SDS011;2338;49.602;8.722;2024-01-30T11:01:18;36.70;;;26.00;;
4650;SDS011;2338;49.602;8.722;2024-01-30T11:04:06;34.23;;;22.57;;
4650;SDS011;2338;49.602;8.722;2024-01-30T11:06:52;33.63;;;21.30;;
4650;SDS011;2338;49.602;8.722;2024-01-30T11:09:39;23.10;;;13.57;;
4650;SDS011;2338;49.602;8.722;2024-01-30T11:12:25;16.33;;;11.77;;
4650;SDS011;2338;49.602;8.722;2024-01-30T11:15:13;26.97;;;16.90;;
4650;SDS011;2338;49.602;8.722;2024-01-30T11:18:00;22.43;;;15.23;;
4650;SDS011;2338;49.602;8.722;2024-01-30T11:20:46;10.57;;;7.90;;
4650;SDS011;2338;49.602;8.722;2024-01-30T11:23:33;15.63;;;10.13;;
4650;SDS011;2338;49.602;8.722;2024-01-30T11:26:23;16.97;;;11.70;;
4650;SDS011;2338;49.602;8.722;2024-01-30T11:29:13;8.83;;;6.23;;
4650;SDS011;2338;49.602;8.722;2024-01-30T11:32:00;8.17;;;6.50;;
4650;SDS011;2338;49.602;8.722;2024-01-30T11:34:46;9.10;;;5.77;;
4650;SDS011;2338;49.602;8.722;2024-01-30T11:37:32;16.73;;;7.23;;
4650;SDS011;2338;49.602;8.722;2024-01-30T11:40:22;13.93;;;7.60;;
4650;SDS011;2338;49.602;8.722;2024-01-30T11:43:09;19.53;;;8.80;;
4650;SDS011;2338;49.602;8.722;2024-01-30T11:45:55;15.43;;;7.80;;
4650;SDS011;2338;49.602;8.722;2024-01-30T11:48:43;9.20;;;6.37;;
4650;SDS011;2338;49.602;8.722;2024-01-30T11:51:29;24.13;;;10.60;;
4650;SDS011;2338;49.602;8.722;2024-01-30T11:54:16;26.37;;;10.70;;
4650;SDS011;2338;49.602;8.722;2024-01-30T11:57:01;26.13;;;12.87;;
4650;SDS011;2338;49.602;8.722;2024-01-30T11:59:47;31.97;;;11.87;;
4650;SDS011;2338;49.602;8.722;2024-01-30T12:02:33;24.53;;;10.17;;
4650;SDS011;2338;49.602;8.722;2024-01-30T12:05:20;13.87;;;7.33;;
4650;SDS011;2338;49.602;8.722;2024-01-30T12:08:06;18.93;;;7.10;;
4650;SDS011;2338;49.602;8.722;2024-01-30T12:10:55;40.97;;;15.93;;
4650;SDS011;2338;49.602;8.722;2024-01-30T12:13:42;14.17;;;8.53;;
4650;SDS011;2338;49.602;8.722;2024-01-30T12:16:28;14.37;;;7.03;;
4650;SDS011;2338;49.602;8.722;2024-01-30T12:19:20;12.47;;;7.50;;
4650;SDS011;2338;49.602;8.722;2024-01-30T12:22:08;22.80;;;9.30;;
4650;SDS011;2338;49.602;8.722;2024-01-30T12:24:56;15.07;;;7.57;;
4650;SDS011;2338;49.602;8.722;2024-01-30T12:27:42;12.30;;;8.63;;
4650;SDS011;2338;49.602;8.722;2024-01-30T12:30:29;28.60;;;12.50;;
4650;SDS011;2338;49.602;8.722;2024-01-30T12:33:16;17.77;;;7.90;;
4650;SDS011;2338;49.602;8.722;2024-01-30T12:36:02;26.40;;;11.23;;
4650;SDS011;2338;49.602;8.722;2024-01-30T12:38:50;54.83;;;16.73;;
4650;SDS011;2338;49.602;8.722;2024-01-30T12:41:36;40.10;;;13.10;;
4650;SDS011;2338;49.602;8.722;2024-01-30T12:44:21;52.93;;;16.90;;
4650;SDS011;2338;49.602;8.722;2024-01-30T12:47:08;35.60;;;13.03;;
4650;SDS011;2338;49.602;8.722;2024-01-30T12:49:54;15.80;;;8.23;;
4650;SDS011;2338;49.602;8.722;2024-01-30T12:52:40;10.80;;;6.80;;
4650;SDS011;2338;49.602;8.722;2024-01-30T12:55:27;10.17;;;6.73;;
4650;SDS011;2338;49.602;8.722;2024-01-30T12:58:14;15.13;;;7.20;;
4650;SDS011;2338;49.602;8.722;2024-01-30T13:00:59;13.53;;;6.80;;
4650;SDS011;2338;49.602;8.722;2024-01-30T13:03:45;22.23;;;9.40;;
4650;SDS011;2338;49.602;8.722;2024-01-30T13:06:30;10.53;;;7.47;;
4650;SDS011;2338;49.602;8.722;2024-01-30T13:09:16;10.63;;;7.00;;
4650;SDS011;2338;49.602;8.722;2024-01-30T13:12:04;10.13;;;7.10;;
4650;SDS011;2338;49.602;8.722;2024-01-30T13:14:50;15.87;;;7.07;;
4650;SDS011;2338;49.602;8.722;2024-01-30T13:17:36;10.17;;;7.10;;
4650;SDS011;2338;49.602;8.722;2024-01-30T13:20:21;10.93;;;7.30;;
4650;SDS011;2338;49.602;8.722;2024-01-30T13:23:07;10.93;;;7.00;;
4650;SDS011;2338;49.602;8.722;2024-01-30T13:25:53;9.50;;;6.80;;
4650;SDS011;2338;49.602;8.722;2024-01-30T13:28:43;11.23;;;7.47;;
4650;SDS011;2338;49.602;8.722;2024-01-30T13:31:28;8.80;;;6.73;;
4650;SDS011;2338;49.602;8.722;2024-01-30T13:34:14;9.90;;;6.77;;
4650;SDS011;2338;49.602;8.722;2024-01-30T13:37:00;12.07;;;7.30;;
4650;SDS011;2338;49.602;8.722;2024-01-30T13:39:46;10.23;;;7.80;;
4650;SDS011;2338;49.602;8.722;2024-01-30T13:42:31;11.50;;;7.97;;
4650;SDS011;2338;49.602;8.722;2024-01-30T13:45:18;12.43;;;7.50;;
4650;SDS011;2338;49.602;8.722;2024-01-30T13:48:05;10.20;;;7.67;;
4650;SDS011;2338;49.602;8.722;2024-01-30T13:50:51;10.67;;;7.57;;
4650;SDS011;2338;49.602;8.722;2024-01-30T13:53:36;10.40;;;7.17;;
4650;SDS011;2338;49.602;8.722;2024-01-30T13:56:22;14.80;;;8.10;;
4650;SDS011;2338;49.602;8.722;2024-01-30T13:59:08;13.23;;;7.37;;
4650;SDS011;2338;49.602;8.722;2024-01-30T14:01:55;11.33;;;7.60;;
4650;SDS011;2338;49.602;8.722;2024-01-30T14:04:41;13.53;;;7.90;;
4650;SDS011;2338;49.602;8.722;2024-01-30T14:07:27;8.70;;;7.03;;
4650;SDS011;2338;49.602;8.722;2024-01-30T14:10:13;11.60;;;8.07;;
4650;SDS011;2338;49.602;8.722;2024-01-30T14:12:58;11.03;;;7.70;;
4650;SDS011;2338;49.602;8.722;2024-01-30T14:15:44;9.13;;;7.03;;
4650;SDS011;2338;49.602;8.722;2024-01-30T14:18:31;14.03;;;8.20;;
4650;SDS011;2338;49.602;8.722;2024-01-30T14:21:17;12.50;;;8.73;;
4650;SDS011;2338;49.602;8.722;2024-01-30T14:24:02;10.17;;;7.13;;
4650;SDS011;2338;49.602;8.722;2024-01-30T14:26:49;17.43;;;7.70;;
4650;SDS011;2338;49.602;8.722;2024-01-30T14:29:35;8.73;;;6.33;;
4650;SDS011;2338;49.602;8.722;2024-01-30T14:32:20;17.50;;;7.53;;
4650;SDS011;2338;49.602;8.722;2024-01-30T14:35:08;10.43;;;6.83;;
4650;SDS011;2338;49.602;8.722;2024-01-30T14:37:54;9.50;;;6.80;;
4650;SDS011;2338;49.602;8.722;2024-01-30T14:40:41;11.70;;;7.10;;
4650;SDS011;2338;49.602;8.722;2024-01-30T14:43:27;9.87;;;6.53;;
4650;SDS011;2338;49.602;8.722;2024-01-30T14:46:12;8.60;;;6.10;;
4650;SDS011;2338;49.602;8.722;2024-01-30T14:48:58;8.23;;;5.93;;
4650;SDS011;2338;49.602;8.722;2024-01-30T14:51:48;9.30;;;5.77;;
4650;SDS011;2338;49.602;8.722;2024-01-30T14:54:34;10.73;;;6.27;;
4650;SDS011;2338;49.602;8.722;2024-01-30T14:57:19;8.50;;;5.40;;
4650;SDS011;2338;49.602;8.722;2024-01-30T15:00:06;8.13;;;6.17;;
4650;SDS011;2338;49.602;8.722;2024-01-30T15:02:52;12.03;;;6.90;;
4650;SDS011;2338;49.602;8.722;2024-01-30T15:05:38;9.97;;;6.30;;
4650;SDS011;2338;49.602;8.722;2024-01-30T15:08:25;9.00;;;5.50;;
4650;SDS011;2338;49.602;8.722;2024-01-30T15:11:11;14.60;;;7.03;;
4650;SDS011;2338;49.602;8.722;2024-01-30T15:13:56;7.70;;;5.70;;
4650;SDS011;2338;49.602;8.722;2024-01-30T15:16:42;9.23;;;5.20;;
4650;SDS011;2338;49.602;8.722;2024-01-30T15:19:28;9.10;;;5.77;;
4650;SDS011;2338;49.602;8.722;2024-01-30T15:22:13;12.43;;;6.53;;
4650;SDS011;2338;49.602;8.722;2024-01-30T15:25:00;8.50;;;6.33;;
4650;SDS011;2338;49.602;8.722;2024-01-30T15:27:46;10.07;;;8.10;;
4650;SDS011;2338;49.602;8.722;2024-01-30T15:30:32;7.57;;;5.30;;
4650;SDS011;2338;49.602;8.722;2024-01-30T15:33:18;7.80;;;5.50;;
4650;SDS011;2338;49.602;8.722;2024-01-30T15:36:04;12.60;;;6.17;;
4650;SDS011;2338;49.602;8.722;2024-01-30T15:38:50;17.13;;;6.90;;
4650;SDS011;2338;49.602;8.722;2024-01-30T15:41:37;8.13;;;5.90;;
4650;SDS011;2338;49.602;8.722;2024-01-30T15:44:22;11.17;;;6.20;;
4650;SDS011;2338;49.602;8.722;2024-01-30T15:47:08;10.50;;;6.30;;
4650;SDS011;2338;49.602;8.722;2024-01-30T15:49:54;7.90;;;5.83;;
4650;SDS011;2338;49.602;8.722;2024-01-30T15:52:40;8.27;;;6.00;;
4650;SDS011;2338;49.602;8.722;2024-01-30T15:55:25;7.63;;;5.53;;
4650;SDS011;2338;49.602;8.722;2024-01-30T15:58:13;8.00;;;5.27;;
4650;SDS011;2338;49.602;8.722;2024-01-30T16:00:59;7.13;;;5.83;;
4650;SDS011;2338;49.602;8.722;2024-01-30T16:03:45;8.40;;;5.40;;
4650;SDS011;2338;49.602;8.722;2024-01-30T16:06:31;9.90;;;5.60;;
4650;SDS011;2338;49.602;8.722;2024-01-30T16:09:17;9.30;;;6.70;;
4650;SDS011;2338;49.602;8.722;2024-01-30T16:12:02;8.87;;;6.47;;
4650;SDS011;2338;49.602;8.722;2024-01-30T16:14:50;9.20;;;6.37;;
4650;SDS011;2338;49.602;8.722;2024-01-30T16:17:35;9.07;;;6.30;;
4650;SDS011;2338;49.602;8.722;2024-01-30T16:20:21;10.90;;;6.17;;
4650;SDS011;2338;49.602;8.722;2024-01-30T16:23:06;8.73;;;6.30;;
4650;SDS011;2338;49.602;8.722;2024-01-30T16:25:52;12.57;;;6.27;;
4650;SDS011;2338;49.602;8.722;2024-01-30T16:28:38;9.40;;;6.73;;
4650;SDS011;2338;49.602;8.722;2024-01-30T16:31:25;11.73;;;6.83;;
4650;SDS011;2338;49.602;8.722;2024-01-30T16:34:11;6.93;;;5.77;;
4650;SDS011;2338;49.602;8.722;2024-01-30T16:36:56;12.67;;;7.47;;
4650;SDS011;2338;49.602;8.722;2024-01-30T16:39:42;23.27;;;10.30;;
4650;SDS011;2338;49.602;8.722;2024-01-30T16:42:27;50.43;;;21.70;;
4650;SDS011;2338;49.602;8.722;2024-01-30T16:45:13;50.33;;;21.53;;
4650;SDS011;2338;49.602;8.722;2024-01-30T16:48:00;47.83;;;20.07;;